Time;durP1;ratioP1;P1;durP2;ratioP2;P2;SDS_P1;SDS_P2;PMS_P1;PMS_P2;Temp;Humidity;BMP_temperature;BMP_pressure;BME280_temperature;BME280_humidity;BME280_pressure;Samples;Min_cycle;Max_cycle;Signal;HPM_P1;HPM_P2
2023/12/06 00:01:39;;;;;;;101.37;38.03;;;;;;;;;;5024186;28;20243;-75
2023/12/06 00:04:05;;;;;;;97.13;38.50;;;;;;;;;;5033701;28;20198;-74
2023/12/06 00:06:30;;;;;;;97.67;38.37;;;;;;;;;;5024228;28;20198;-75
2023/12/06 00:08:56;;;;;;;92.87;37.67;;;;;;;;;;5034411;28;20194;-74
2023/12/06 00:11:21;;;;;;;104.37;39.50;;;;;;;;;;5033062;28;20435;-75
2023/12/06 00:13:47;;;;;;;93.13;36.83;;;;;;;;;;5019646;28;20222;-75
2023/12/06 00:16:12;;;;;;;95.57;37.57;;;;;;;;;;5032960;28;20233;-74
2023/12/06 00:18:38;;;;;;;97.53;38.83;;;;;;;;;;5039238;28;20244;-74
2023/12/06 00:21:04;;;;;;;96.77;37.00;;;;;;;;;;5033396;28;20190;-73
2023/12/06 00:23:29;;;;;;;85.77;36.97;;;;;;;;;;5024774;28;20409;-74
2023/12/06 00:25:54;;;;;;;88.73;36.63;;;;;;;;;;5033980;28;20252;-74
2023/12/06 00:28:20;;;;;;;94.20;36.33;;;;;;;;;;5038333;28;20201;-74
2023/12/06 00:30:45;;;;;;;100.93;38.10;;;;;;;;;;5024651;28;20229;-75
2023/12/06 00:33:11;;;;;;;96.53;37.90;;;;;;;;;;5050061;28;20197;-74
2023/12/06 00:35:36;;;;;;;99.60;38.63;;;;;;;;;;5026992;28;20224;-75
2023/12/06 00:38:02;;;;;;;92.10;38.57;;;;;;;;;;5033398;28;20227;-74
2023/12/06 00:40:27;;;;;;;91.93;37.57;;;;;;;;;;5026959;28;20265;-74
2023/12/06 00:42:53;;;;;;;89.23;36.97;;;;;;;;;;5028813;28;20209;-74
2023/12/06 00:45:18;;;;;;;93.57;38.30;;;;;;;;;;5031183;28;20194;-74
2023/12/06 00:47:44;;;;;;;87.93;36.63;;;;;;;;;;5035463;28;20633;-75
2023/12/06 00:50:09;;;;;;;92.60;38.73;;;;;;;;;;5041721;28;20251;-73
2023/12/06 00:52:35;;;;;;;90.13;37.70;;;;;;;;;;5033727;28;20205;-74
2023/12/06 00:55:00;;;;;;;85.00;37.23;;;;;;;;;;5034031;28;20624;-74
2023/12/06 00:57:26;;;;;;;90.17;39.03;;;;;;;;;;5040203;28;20259;-74
2023/12/06 00:59:51;;;;;;;94.87;39.77;;;;;;;;;;5026667;28;20240;-74
2023/12/06 01:02:17;;;;;;;92.83;37.10;;;;;;;;;;5021547;28;20239;-75
2023/12/06 01:04:42;;;;;;;87.77;38.80;;;;;;;;;;5024553;28;20225;-74
2023/12/06 01:07:08;;;;;;;90.20;37.77;;;;;;;;;;5037729;28;20190;-74
2023/12/06 01:09:33;;;;;;;84.67;37.00;;;;;;;;;;5029323;28;20229;-74
2023/12/06 01:11:59;;;;;;;87.80;37.47;;;;;;;;;;5041419;28;20193;-74
2023/12/06 01:14:24;;;;;;;85.83;37.77;;;;;;;;;;5030602;28;20204;-74
2023/12/06 01:16:50;;;;;;;82.27;37.40;;;;;;;;;;5019788;28;20190;-74
2023/12/06 01:19:16;;;;;;;79.83;35.67;;;;;;;;;;5030568;28;20291;-74
2023/12/06 01:21:42;;;;;;;83.37;36.87;;;;;;;;;;5032426;28;20684;-74
2023/12/06 01:24:07;;;;;;;75.93;36.10;;;;;;;;;;5033506;28;20185;-74
2023/12/06 01:26:33;;;;;;;78.00;35.63;;;;;;;;;;5019714;28;20241;-74
2023/12/06 01:28:59;;;;;;;81.17;36.87;;;;;;;;;;5030773;28;20235;-74
2023/12/06 01:31:25;;;;;;;83.17;36.97;;;;;;;;;;5037184;28;20643;-73
2023/12/06 01:33:50;;;;;;;82.50;37.70;;;;;;;;;;5020799;28;20265;-74
2023/12/06 01:36:15;;;;;;;75.17;35.90;;;;;;;;;;5033218;28;20190;-74
2023/12/06 01:38:41;;;;;;;76.73;36.60;;;;;;;;;;5033331;28;20190;-74
2023/12/06 01:41:10;;;;;;;75.93;35.57;;;;;;;;;;5031766;28;20227;-74
2023/12/06 01:43:36;;;;;;;71.43;35.90;;;;;;;;;;5011767;28;20229;-74
2023/12/06 01:46:02;;;;;;;72.27;35.37;;;;;;;;;;5027414;28;20596;-73
2023/12/06 01:48:30;;;;;;;72.53;34.63;;;;;;;;;;5034976;28;20217;-73
2023/12/06 01:50:56;;;;;;;77.03;34.50;;;;;;;;;;5027886;28;21029;-73
2023/12/06 01:53:22;;;;;;;70.10;33.90;;;;;;;;;;5028732;28;20201;-73
2023/12/06 01:55:47;;;;;;;71.13;34.60;;;;;;;;;;5031806;28;20198;-73
2023/12/06 01:58:13;;;;;;;70.07;33.70;;;;;;;;;;5033151;28;20221;-73
2023/12/06 02:00:39;;;;;;;74.13;33.30;;;;;;;;;;5007970;28;20199;-73
2023/12/06 02:03:05;;;;;;;71.83;33.73;;;;;;;;;;5030441;28;20189;-73
2023/12/06 02:05:31;;;;;;;71.60;34.70;;;;;;;;;;5014012;28;20709;-73
2023/12/06 02:07:56;;;;;;;70.50;35.17;;;;;;;;;;5027961;28;20189;-73
2023/12/06 02:10:22;;;;;;;66.67;34.03;;;;;;;;;;5029815;28;20549;-73
2023/12/06 02:12:47;;;;;;;67.40;33.50;;;;;;;;;;5030492;28;20194;-73
2023/12/06 02:15:13;;;;;;;68.03;34.27;;;;;;;;;;5027972;28;20236;-73
2023/12/06 02:17:40;;;;;;;69.60;34.57;;;;;;;;;;5035966;28;20190;-73
2023/12/06 02:20:07;;;;;;;67.47;35.17;;;;;;;;;;5026180;28;20193;-73
2023/12/06 02:22:33;;;;;;;69.87;34.30;;;;;;;;;;5030550;28;20218;-73
2023/12/06 02:25:02;;;;;;;67.73;34.00;;;;;;;;;;5025960;28;20186;-73
2023/12/06 02:27:27;;;;;;;75.20;34.20;;;;;;;;;;5034257;28;20262;-73
2023/12/06 02:29:52;;;;;;;68.93;34.67;;;;;;;;;;5018077;28;20205;-73
2023/12/06 02:32:18;;;;;;;69.43;35.30;;;;;;;;;;5026538;28;20197;-73
2023/12/06 02:34:46;;;;;;;74.30;34.17;;;;;;;;;;5034830;28;20193;-73
2023/12/06 02:37:14;;;;;;;65.33;33.40;;;;;;;;;;5034844;28;20261;-73
2023/12/06 02:39:42;;;;;;;68.27;33.33;;;;;;;;;;5023290;28;20269;-73
2023/12/06 02:42:08;;;;;;;61.63;32.70;;;;;;;;;;5036445;28;20198;-73
2023/12/06 02:44:34;;;;;;;67.43;33.63;;;;;;;;;;5036306;28;22830;-72
2023/12/06 02:47:00;;;;;;;70.37;33.80;;;;;;;;;;5036448;28;20272;-73
2023/12/06 02:49:25;;;;;;;64.27;32.97;;;;;;;;;;5027121;28;20207;-73
2023/12/06 02:51:51;;;;;;;73.13;35.83;;;;;;;;;;5030998;28;20189;-73
2023/12/06 02:54:16;;;;;;;66.33;34.13;;;;;;;;;;5038743;28;20618;-73
2023/12/06 02:56:42;;;;;;;69.40;34.53;;;;;;;;;;5028489;28;20186;-74
2023/12/06 02:59:07;;;;;;;74.30;36.03;;;;;;;;;;5020699;28;20197;-74
2023/12/06 03:01:32;;;;;;;71.40;34.63;;;;;;;;;;5020597;28;20195;-74
2023/12/06 03:03:58;;;;;;;68.60;33.50;;;;;;;;;;5026023;28;20304;-74
2023/12/06 03:06:23;;;;;;;73.27;35.30;;;;;;;;;;5028074;28;20555;-74
2023/12/06 03:08:52;;;;;;;73.60;35.93;;;;;;;;;;5023529;28;20197;-74
2023/12/06 03:11:17;;;;;;;68.90;34.17;;;;;;;;;;5029635;28;20586;-74
2023/12/06 03:13:42;;;;;;;73.43;34.67;;;;;;;;;;5031821;28;20276;-74
2023/12/06 03:16:08;;;;;;;73.20;35.17;;;;;;;;;;5031583;28;20439;-75
2023/12/06 03:18:34;;;;;;;76.13;35.10;;;;;;;;;;5034263;28;20245;-74
2023/12/06 03:21:00;;;;;;;75.13;35.50;;;;;;;;;;5027651;28;20183;-74
2023/12/06 03:23:27;;;;;;;71.50;34.57;;;;;;;;;;5027484;28;20225;-73
2023/12/06 03:25:52;;;;;;;71.83;34.60;;;;;;;;;;5017186;28;20220;-74
2023/12/06 03:28:18;;;;;;;73.20;35.80;;;;;;;;;;5022244;28;20656;-74
2023/12/06 03:30:43;;;;;;;67.17;34.57;;;;;;;;;;5031323;28;20264;-74
2023/12/06 03:33:09;;;;;;;75.93;35.37;;;;;;;;;;5027842;28;20209;-74
2023/12/06 03:35:34;;;;;;;74.17;34.23;;;;;;;;;;5035665;28;20577;-74
2023/12/06 03:38:00;;;;;;;73.53;34.40;;;;;;;;;;5027816;28;20193;-74
2023/12/06 03:40:25;;;;;;;72.53;34.97;;;;;;;;;;5026194;28;20205;-74
2023/12/06 03:42:50;;;;;;;74.33;35.53;;;;;;;;;;5025476;28;20186;-74
2023/12/06 03:45:16;;;;;;;72.50;34.23;;;;;;;;;;5027721;28;20256;-74
2023/12/06 03:47:41;;;;;;;71.20;33.87;;;;;;;;;;5034470;28;20559;-75
2023/12/06 03:50:07;;;;;;;75.23;34.97;;;;;;;;;;5034374;28;20255;-75
2023/12/06 03:52:33;;;;;;;73.87;34.97;;;;;;;;;;5025869;28;20541;-75
2023/12/06 03:54:59;;;;;;;76.27;36.73;;;;;;;;;;5036739;28;20474;-76
2023/12/06 03:57:24;;;;;;;75.50;34.67;;;;;;;;;;5030107;28;20213;-76
2023/12/06 03:59:50;;;;;;;73.67;35.33;;;;;;;;;;5037487;28;20186;-76
2023/12/06 04:02:15;;;;;;;76.00;35.77;;;;;;;;;;5039189;28;20274;-76
2023/12/06 04:04:41;;;;;;;72.83;35.60;;;;;;;;;;5020652;28;20221;-76
2023/12/06 04:07:06;;;;;;;70.47;33.57;;;;;;;;;;5045326;28;20189;-76
2023/12/06 04:09:32;;;;;;;73.67;35.30;;;;;;;;;;5025706;28;20209;-76
2023/12/06 04:11:57;;;;;;;72.57;33.63;;;;;;;;;;5032551;28;20197;-76
2023/12/06 04:14:23;;;;;;;69.37;33.73;;;;;;;;;;5032305;28;20652;-77
2023/12/06 04:16:49;;;;;;;72.13;33.37;;;;;;;;;;5041255;28;20190;-76
2023/12/06 04:19:15;;;;;;;79.17;36.03;;;;;;;;;;5033666;28;20216;-76
2023/12/06 04:21:41;;;;;;;76.87;35.03;;;;;;;;;;5033100;28;20536;-77
2023/12/06 04:24:06;;;;;;;77.37;35.43;;;;;;;;;;5042583;28;20265;-77
2023/12/06 04:26:32;;;;;;;73.77;34.87;;;;;;;;;;5028689;28;20194;-77
2023/12/06 04:28:57;;;;;;;75.30;35.17;;;;;;;;;;5029226;28;20186;-77
2023/12/06 04:31:23;;;;;;;76.73;35.93;;;;;;;;;;5026382;28;20640;-77
2023/12/06 04:33:48;;;;;;;70.53;32.90;;;;;;;;;;5020717;28;20270;-78
2023/12/06 04:36:14;;;;;;;74.27;32.90;;;;;;;;;;5017530;28;20350;-77
2023/12/06 04:38:39;;;;;;;71.60;33.77;;;;;;;;;;5035171;28;20195;-78
2023/12/06 04:41:05;;;;;;;69.77;33.13;;;;;;;;;;5022445;28;20185;-78
2023/12/06 04:43:30;;;;;;;67.17;32.13;;;;;;;;;;5023140;28;20641;-78
2023/12/06 04:45:55;;;;;;;66.27;33.27;;;;;;;;;;5032876;28;20630;-78
2023/12/06 04:48:22;;;;;;;60.73;32.33;;;;;;;;;;5036631;28;20344;-78
2023/12/06 04:50:47;;;;;;;59.83;31.73;;;;;;;;;;5028788;28;20305;-77
2023/12/06 04:53:12;;;;;;;61.27;30.90;;;;;;;;;;5033305;28;20261;-77
2023/12/06 04:55:38;;;;;;;60.37;31.60;;;;;;;;;;5020140;28;20650;-77
2023/12/06 04:58:04;;;;;;;55.93;30.27;;;;;;;;;;5029545;28;20213;-77
2023/12/06 05:00:30;;;;;;;57.27;29.37;;;;;;;;;;5027015;28;20214;-77
2023/12/06 05:02:55;;;;;;;56.20;29.77;;;;;;;;;;5019807;28;20206;-77
2023/12/06 05:05:21;;;;;;;53.90;27.57;;;;;;;;;;5013919;28;20185;-77
2023/12/06 05:07:46;;;;;;;57.17;29.67;;;;;;;;;;5006943;28;20264;-77
2023/12/06 05:10:11;;;;;;;58.47;31.33;;;;;;;;;;5031123;28;20446;-77
2023/12/06 05:12:37;;;;;;;56.67;29.57;;;;;;;;;;5017229;28;20185;-78
2023/12/06 05:15:03;;;;;;;54.93;29.70;;;;;;;;;;5034733;28;20714;-78
2023/12/06 05:17:29;;;;;;;58.37;30.50;;;;;;;;;;5030561;28;20202;-77
2023/12/06 05:19:55;;;;;;;50.80;28.70;;;;;;;;;;5023512;28;20194;-78
2023/12/06 05:22:20;;;;;;;57.90;30.20;;;;;;;;;;5019810;28;20186;-78
2023/12/06 05:24:46;;;;;;;54.13;28.90;;;;;;;;;;5020825;28;20838;-77
2023/12/06 05:27:12;;;;;;;56.57;29.83;;;;;;;;;;5010524;28;20218;-77
2023/12/06 05:29:37;;;;;;;51.53;28.40;;;;;;;;;;5034767;28;20206;-78
2023/12/06 05:32:03;;;;;;;53.77;29.10;;;;;;;;;;5030011;28;20572;-78
2023/12/06 05:34:29;;;;;;;54.17;29.67;;;;;;;;;;5027818;28;20645;-78
2023/12/06 05:36:55;;;;;;;57.23;29.70;;;;;;;;;;5034771;28;20194;-78
2023/12/06 05:39:21;;;;;;;56.13;29.47;;;;;;;;;;5030062;28;20205;-78
2023/12/06 05:41:46;;;;;;;61.40;29.73;;;;;;;;;;5028206;28;20589;-78
2023/12/06 05:44:11;;;;;;;54.60;29.67;;;;;;;;;;5032329;28;20239;-78
2023/12/06 05:46:37;;;;;;;53.50;30.60;;;;;;;;;;5026306;28;21558;-78
2023/12/06 05:49:02;;;;;;;50.17;29.37;;;;;;;;;;5035614;28;20268;-78
2023/12/06 05:51:28;;;;;;;55.30;30.83;;;;;;;;;;5036792;28;20205;-77
2023/12/06 05:53:53;;;;;;;55.93;30.80;;;;;;;;;;5028713;28;20284;-78
2023/12/06 05:56:19;;;;;;;54.93;29.73;;;;;;;;;;5028754;28;20189;-77
2023/12/06 05:58:44;;;;;;;54.37;29.50;;;;;;;;;;5029559;28;20213;-77
2023/12/06 06:01:10;;;;;;;53.63;29.77;;;;;;;;;;5032411;28;20555;-78
2023/12/06 06:03:35;;;;;;;55.03;29.37;;;;;;;;;;5021551;28;21431;-77
2023/12/06 06:06:07;;;;;;;57.13;31.50;;;;;;;;;;5026403;28;20325;-78
2023/12/06 06:08:36;;;;;;;53.50;30.60;;;;;;;;;;5007518;28;20220;-78
2023/12/06 06:11:02;;;;;;;53.77;30.37;;;;;;;;;;5023133;28;20221;-78
2023/12/06 06:13:29;;;;;;;54.47;30.27;;;;;;;;;;5031168;28;20185;-78
2023/12/06 06:15:58;;;;;;;54.83;30.27;;;;;;;;;;5031216;28;20756;-78
2023/12/06 06:18:24;;;;;;;55.27;30.13;;;;;;;;;;5030897;28;20236;-78
2023/12/06 06:20:50;;;;;;;55.67;30.97;;;;;;;;;;5016202;28;20595;-78
2023/12/06 06:23:15;;;;;;;52.93;31.07;;;;;;;;;;5044772;28;20205;-78
2023/12/06 06:25:40;;;;;;;48.43;28.90;;;;;;;;;;5018688;28;20275;-78
2023/12/06 06:28:06;;;;;;;52.47;28.80;;;;;;;;;;5033931;28;20189;-78
2023/12/06 06:30:32;;;;;;;49.63;29.17;;;;;;;;;;5033862;28;20214;-78
2023/12/06 06:32:57;;;;;;;51.30;27.33;;;;;;;;;;5014018;28;20190;-78
2023/12/06 06:35:23;;;;;;;48.10;28.67;;;;;;;;;;5039937;28;20194;-78
2023/12/06 06:37:49;;;;;;;52.07;29.43;;;;;;;;;;5030943;28;20280;-78
2023/12/06 06:40:15;;;;;;;52.03;29.33;;;;;;;;;;5030369;28;20194;-78
2023/12/06 06:42:41;;;;;;;46.63;29.03;;;;;;;;;;5025725;28;20636;-78
2023/12/06 06:45:08;;;;;;;49.23;29.67;;;;;;;;;;5019367;28;20194;-78
2023/12/06 06:47:34;;;;;;;47.00;27.37;;;;;;;;;;5003203;28;20200;-78
2023/12/06 06:49:59;;;;;;;47.80;27.93;;;;;;;;;;5018523;28;20213;-78
2023/12/06 06:52:25;;;;;;;49.10;28.43;;;;;;;;;;5018650;28;20193;-78
2023/12/06 06:54:50;;;;;;;45.40;26.60;;;;;;;;;;5020021;28;20178;-78
2023/12/06 06:57:16;;;;;;;46.27;27.83;;;;;;;;;;5020377;28;20225;-78
2023/12/06 06:59:41;;;;;;;47.23;28.07;;;;;;;;;;5011155;28;20221;-78
2023/12/06 07:02:07;;;;;;;47.03;28.37;;;;;;;;;;5020426;28;20208;-78
2023/12/06 07:04:32;;;;;;;50.73;27.27;;;;;;;;;;5020247;28;20205;-78
2023/12/06 07:06:58;;;;;;;47.73;28.80;;;;;;;;;;5004857;28;20193;-78
2023/12/06 07:09:24;;;;;;;49.83;28.67;;;;;;;;;;5001833;28;20194;-78
2023/12/06 07:11:49;;;;;;;47.60;28.40;;;;;;;;;;5013396;28;20704;-78
2023/12/06 07:14:15;;;;;;;48.03;28.20;;;;;;;;;;5021458;28;20190;-78
2023/12/06 07:16:40;;;;;;;48.93;28.00;;;;;;;;;;5030453;28;20186;-78
2023/12/06 07:19:05;;;;;;;46.87;27.57;;;;;;;;;;5037103;28;20213;-78
2023/12/06 07:21:31;;;;;;;47.23;28.23;;;;;;;;;;5051609;28;20700;-78
2023/12/06 07:23:56;;;;;;;47.03;27.93;;;;;;;;;;5038779;28;20616;-78
2023/12/06 07:26:22;;;;;;;50.67;29.33;;;;;;;;;;5032606;28;20556;-78
2023/12/06 07:28:47;;;;;;;47.30;28.80;;;;;;;;;;5026046;28;20622;-78
2023/12/06 07:31:12;;;;;;;50.57;29.57;;;;;;;;;;5024274;28;20269;-78
2023/12/06 07:33:39;;;;;;;49.83;29.87;;;;;;;;;;5016368;28;20433;-78
2023/12/06 07:36:06;;;;;;;48.20;28.03;;;;;;;;;;5025949;28;20202;-78
2023/12/06 07:38:31;;;;;;;53.43;30.93;;;;;;;;;;5031924;28;20208;-78
2023/12/06 07:40:57;;;;;;;53.93;29.17;;;;;;;;;;5022431;28;20195;-78
2023/12/06 07:43:23;;;;;;;49.90;29.70;;;;;;;;;;5033086;28;20634;-78
2023/12/06 07:45:48;;;;;;;48.13;30.10;;;;;;;;;;5029499;28;20178;-79
2023/12/06 07:48:14;;;;;;;53.17;29.83;;;;;;;;;;5023203;28;20603;-79
2023/12/06 07:50:39;;;;;;;49.67;30.20;;;;;;;;;;5020921;28;20336;-79
2023/12/06 07:53:04;;;;;;;48.53;28.87;;;;;;;;;;5026836;28;20235;-78
2023/12/06 07:55:30;;;;;;;53.93;31.00;;;;;;;;;;5029851;28;20213;-78
2023/12/06 07:57:55;;;;;;;49.87;30.07;;;;;;;;;;5025160;28;20638;-79
2023/12/06 08:00:22;;;;;;;51.63;29.73;;;;;;;;;;5014341;28;20170;-78
2023/12/06 08:02:48;;;;;;;48.17;30.20;;;;;;;;;;5004754;28;20259;-78
2023/12/06 08:05:16;;;;;;;53.37;30.57;;;;;;;;;;5032210;28;20537;-78
2023/12/06 08:07:42;;;;;;;52.53;30.57;;;;;;;;;;5010855;28;20205;-78
2023/12/06 08:10:10;;;;;;;50.47;28.67;;;;;;;;;;5021889;28;20207;-78
2023/12/06 08:12:37;;;;;;;46.67;28.53;;;;;;;;;;5028308;28;20597;-78
2023/12/06 08:15:06;;;;;;;50.80;30.63;;;;;;;;;;5024764;28;20567;-79
2023/12/06 08:17:32;;;;;;;45.17;28.47;;;;;;;;;;5018493;28;20205;-78
2023/12/06 08:19:58;;;;;;;49.93;30.23;;;;;;;;;;5024752;28;20175;-78
2023/12/06 08:22:23;;;;;;;51.83;30.10;;;;;;;;;;4993544;28;20183;-78
2023/12/06 08:24:50;;;;;;;49.80;28.83;;;;;;;;;;5018660;28;20214;-78
2023/12/06 08:27:17;;;;;;;47.40;29.47;;;;;;;;;;5028954;28;20551;-78
2023/12/06 08:29:42;;;;;;;48.47;29.47;;;;;;;;;;5012787;28;20581;-78
2023/12/06 08:32:08;;;;;;;44.33;28.77;;;;;;;;;;5030269;28;20255;-78
2023/12/06 08:34:33;;;;;;;48.83;29.33;;;;;;;;;;5032361;28;20182;-78
2023/12/06 08:36:59;;;;;;;47.10;29.70;;;;;;;;;;5028104;28;20210;-78
2023/12/06 08:39:24;;;;;;;45.53;28.07;;;;;;;;;;5025512;28;20190;-78
2023/12/06 08:41:49;;;;;;;46.80;28.97;;;;;;;;;;5031984;28;20190;-79
2023/12/06 08:44:15;;;;;;;46.60;28.73;;;;;;;;;;5033300;28;20186;-77
2023/12/06 08:46:42;;;;;;;48.07;29.20;;;;;;;;;;5029839;28;20194;-78
2023/12/06 08:49:07;;;;;;;47.43;28.30;;;;;;;;;;5022455;28;20182;-78
2023/12/06 08:51:33;;;;;;;46.70;28.33;;;;;;;;;;4990820;28;20218;-79
2023/12/06 08:53:58;;;;;;;49.17;28.73;;;;;;;;;;5015085;28;20638;-78
2023/12/06 08:56:23;;;;;;;48.90;27.73;;;;;;;;;;5031039;28;20179;-79
2023/12/06 08:58:49;;;;;;;47.27;28.43;;;;;;;;;;5056151;28;20186;-79
2023/12/06 09:01:14;;;;;;;41.30;26.93;;;;;;;;;;5019307;28;20182;-79
2023/12/06 09:03:40;;;;;;;51.17;27.00;;;;;;;;;;5029642;28;20183;-79
2023/12/06 09:06:06;;;;;;;44.30;28.40;;;;;;;;;;5029219;28;20553;-79
2023/12/06 09:08:33;;;;;;;43.53;27.43;;;;;;;;;;5011310;28;20193;-79
2023/12/06 09:10:58;;;;;;;43.03;26.97;;;;;;;;;;5024385;28;20206;-79
2023/12/06 09:13:24;;;;;;;38.83;25.93;;;;;;;;;;5027440;28;20232;-79
2023/12/06 09:15:49;;;;;;;42.43;28.50;;;;;;;;;;5029434;28;20367;-79
2023/12/06 09:18:15;;;;;;;41.93;26.77;;;;;;;;;;5009531;28;20288;-79
2023/12/06 09:20:42;;;;;;;44.43;26.13;;;;;;;;;;5022760;28;20178;-80
2023/12/06 09:23:07;;;;;;;42.57;26.87;;;;;;;;;;5009324;28;20638;-79
2023/12/06 09:25:33;;;;;;;46.63;26.80;;;;;;;;;;5029603;28;20392;-79
2023/12/06 09:27:58;;;;;;;39.70;26.13;;;;;;;;;;4997226;28;20178;-79
2023/12/06 09:30:24;;;;;;;39.60;26.47;;;;;;;;;;5004447;28;20795;-79
2023/12/06 09:32:50;;;;;;;43.47;26.50;;;;;;;;;;5025169;28;20183;-79
2023/12/06 09:35:15;;;;;;;39.80;25.97;;;;;;;;;;5011270;28;20380;-79
2023/12/06 09:37:42;;;;;;;42.93;24.40;;;;;;;;;;5039831;28;20229;-79
2023/12/06 09:40:09;;;;;;;39.30;27.20;;;;;;;;;;5006976;28;20783;-79
2023/12/06 09:42:37;;;;;;;39.37;25.30;;;;;;;;;;5024967;28;20554;-79
2023/12/06 09:45:04;;;;;;;39.97;26.03;;;;;;;;;;5031645;28;20186;-79
2023/12/06 09:47:30;;;;;;;41.70;25.80;;;;;;;;;;5026179;28;20197;-79
2023/12/06 09:49:56;;;;;;;42.87;26.57;;;;;;;;;;5025669;28;20206;-79
2023/12/06 09:52:22;;;;;;;42.27;27.13;;;;;;;;;;5041069;28;20193;-79
2023/12/06 09:54:49;;;;;;;43.00;26.27;;;;;;;;;;5009424;28;20243;-79
2023/12/06 09:57:15;;;;;;;41.37;26.90;;;;;;;;;;5005568;28;20202;-79
2023/12/06 09:59:40;;;;;;;46.23;27.33;;;;;;;;;;5013035;28;20197;-79
2023/12/06 10:02:06;;;;;;;49.03;27.93;;;;;;;;;;5027511;28;20196;-79
2023/12/06 10:04:33;;;;;;;41.80;26.47;;;;;;;;;;5024313;28;20179;-79
2023/12/06 10:06:59;;;;;;;46.33;29.07;;;;;;;;;;5004115;28;20182;-79
2023/12/06 10:09:25;;;;;;;41.23;27.17;;;;;;;;;;5021133;28;20205;-78
2023/12/06 10:11:50;;;;;;;43.57;27.27;;;;;;;;;;5019002;28;20548;-78
2023/12/06 10:14:20;;;;;;;45.50;27.97;;;;;;;;;;5051378;28;20230;-78
2023/12/06 10:16:46;;;;;;;42.20;26.67;;;;;;;;;;5021633;28;20246;-78
2023/12/06 10:19:19;;;;;;;44.23;27.90;;;;;;;;;;5026017;28;20218;-78
2023/12/06 10:21:46;;;;;;;40.60;26.77;;;;;;;;;;5024934;28;20240;-78
2023/12/06 10:24:12;;;;;;;43.70;26.80;;;;;;;;;;5010001;28;20701;-77
2023/12/06 10:26:37;;;;;;;40.00;27.33;;;;;;;;;;5027242;28;20237;-78
2023/12/06 10:29:04;;;;;;;39.40;26.50;;;;;;;;;;5030325;28;20182;-77
2023/12/06 10:31:42;;;;;;;41.83;27.47;;;;;;;;;;5028814;28;20233;-77
2023/12/06 10:34:08;;;;;;;45.97;28.13;;;;;;;;;;5032800;28;20255;-78
2023/12/06 10:36:36;;;;;;;38.93;26.20;;;;;;;;;;5016906;28;20182;-77
2023/12/06 10:39:03;;;;;;;39.47;25.67;;;;;;;;;;5030048;28;20193;-77
2023/12/06 10:41:32;;;;;;;40.03;24.27;;;;;;;;;;5025438;28;20181;-78
2023/12/06 10:44:01;;;;;;;38.03;25.07;;;;;;;;;;5010556;28;20193;-78
2023/12/06 10:46:27;;;;;;;38.60;24.87;;;;;;;;;;5001640;28;20190;-78
2023/12/06 10:48:54;;;;;;;36.90;23.83;;;;;;;;;;5011959;28;20642;-78
2023/12/06 10:51:20;;;;;;;35.93;23.83;;;;;;;;;;5015686;28;20214;-78
2023/12/06 10:53:47;;;;;;;46.53;25.30;;;;;;;;;;5022655;28;20257;-77
2023/12/06 10:56:15;;;;;;;34.77;23.33;;;;;;;;;;5000378;28;20190;-78
2023/12/06 10:58:41;;;;;;;38.10;22.70;;;;;;;;;;5011029;28;20288;-77
2023/12/06 11:01:08;;;;;;;34.93;23.33;;;;;;;;;;5012486;28;20185;-77
2023/12/06 11:03:35;;;;;;;33.67;23.10;;;;;;;;;;5018117;28;20197;-77
2023/12/06 11:06:21;;;;;;;32.27;22.03;;;;;;;;;;5023253;28;20179;-78
2023/12/06 11:09:15;;;;;;;39.83;25.73;;;;;;;;;;5023400;28;20246;-76
2023/12/06 11:11:48;;;;;;;34.90;22.23;;;;;;;;;;5006772;28;20256;-76
2023/12/06 11:14:40;;;;;;;32.37;22.87;;;;;;;;;;5023445;28;20197;-76
2023/12/06 11:17:49;;;;;;;32.73;22.60;;;;;;;;;;5029866;28;20598;-77
2023/12/06 11:20:15;;;;;;;30.20;22.20;;;;;;;;;;4974669;28;20202;-76
2023/12/06 11:22:42;;;;;;;36.07;21.70;;;;;;;;;;5011210;28;20187;-76
2023/12/06 11:25:09;;;;;;;33.37;22.23;;;;;;;;;;5010586;28;20210;-76
2023/12/06 11:27:39;;;;;;;33.80;21.93;;;;;;;;;;5017972;28;20186;-76
2023/12/06 11:30:14;;;;;;;32.77;21.83;;;;;;;;;;5024901;28;20237;-76
2023/12/06 11:32:43;;;;;;;36.30;22.70;;;;;;;;;;5011891;28;20226;-76
2023/12/06 11:35:09;;;;;;;35.67;23.07;;;;;;;;;;5027065;28;20194;-76
2023/12/06 11:37:35;;;;;;;30.03;22.03;;;;;;;;;;5001920;28;20204;-76
2023/12/06 11:40:18;;;;;;;31.53;21.63;;;;;;;;;;5017937;28;20269;-76
2023/12/06 11:42:52;;;;;;;32.13;21.40;;;;;;;;;;5019741;28;20194;-76
2023/12/06 11:45:23;;;;;;;31.73;20.83;;;;;;;;;;5016881;28;20196;-76
2023/12/06 11:47:49;;;;;;;30.50;20.63;;;;;;;;;;5018870;28;20198;-76
2023/12/06 11:50:16;;;;;;;30.70;19.47;;;;;;;;;;5019980;28;20229;-76
2023/12/06 11:52:51;;;;;;;32.77;20.20;;;;;;;;;;5018266;28;20190;-76
2023/12/06 11:55:18;;;;;;;27.90;18.80;;;;;;;;;;5020277;28;20573;-76
2023/12/06 11:58:06;;;;;;;28.30;19.37;;;;;;;;;;5019172;28;20237;-75
2023/12/06 12:00:34;;;;;;;31.17;19.47;;;;;;;;;;5023890;28;20201;-76
2023/12/06 12:03:01;;;;;;;29.00;17.63;;;;;;;;;;5024231;28;20273;-76
2023/12/06 12:05:27;;;;;;;28.50;18.43;;;;;;;;;;5002144;28;20231;-76
2023/12/06 12:07:52;;;;;;;30.97;18.07;;;;;;;;;;5021110;28;20577;-76
2023/12/06 12:10:19;;;;;;;25.63;17.27;;;;;;;;;;5025027;28;20249;-77
2023/12/06 12:12:48;;;;;;;27.07;17.77;;;;;;;;;;5021166;28;20292;-76
2023/12/06 12:15:15;;;;;;;27.57;16.50;;;;;;;;;;5027554;28;20255;-76
2023/12/06 12:17:40;;;;;;;26.00;16.93;;;;;;;;;;5024695;28;20475;-75
2023/12/06 12:20:07;;;;;;;25.07;16.20;;;;;;;;;;5029182;28;20232;-75
2023/12/06 12:22:43;;;;;;;24.63;16.90;;;;;;;;;;5016152;28;20194;-76
2023/12/06 12:25:08;;;;;;;23.77;16.23;;;;;;;;;;5035979;28;20286;-76
2023/12/06 12:27:33;;;;;;;30.47;16.43;;;;;;;;;;5016489;28;20576;-75
2023/12/06 12:29:59;;;;;;;22.73;15.53;;;;;;;;;;5024244;28;20218;-75
2023/12/06 12:32:27;;;;;;;23.93;16.40;;;;;;;;;;5009118;28;20690;-75
2023/12/06 12:34:52;;;;;;;28.40;16.33;;;;;;;;;;5024265;28;20190;-74
2023/12/06 12:37:18;;;;;;;25.57;16.10;;;;;;;;;;5025397;28;20193;-75
2023/12/06 12:39:44;;;;;;;28.10;16.37;;;;;;;;;;5022454;28;20191;-74
2023/12/06 12:42:09;;;;;;;21.23;15.43;;;;;;;;;;5011043;28;20212;-73
2023/12/06 12:44:35;;;;;;;23.03;15.47;;;;;;;;;;5027644;28;20764;-74
2023/12/06 12:47:00;;;;;;;24.10;16.17;;;;;;;;;;5029541;28;20885;-74
2023/12/06 12:49:26;;;;;;;23.23;16.07;;;;;;;;;;5035221;28;20208;-73
2023/12/06 12:51:51;;;;;;;22.67;15.43;;;;;;;;;;5033389;28;20515;-74
2023/12/06 12:54:18;;;;;;;23.73;16.00;;;;;;;;;;5030348;28;20244;-74
2023/12/06 12:56:43;;;;;;;24.37;17.13;;;;;;;;;;5040837;28;20189;-76
2023/12/06 12:59:09;;;;;;;23.50;16.03;;;;;;;;;;5027270;28;20241;-75
2023/12/06 13:01:34;;;;;;;23.60;15.73;;;;;;;;;;5008755;28;20498;-74
2023/12/06 13:04:01;;;;;;;28.17;16.37;;;;;;;;;;5032487;28;20269;-75
2023/12/06 13:06:28;;;;;;;23.00;15.47;;;;;;;;;;5034650;28;20241;-74
2023/12/06 13:08:57;;;;;;;22.87;16.33;;;;;;;;;;5015892;28;20189;-74
2023/12/06 13:11:23;;;;;;;24.47;16.70;;;;;;;;;;5010930;28;20433;-74
2023/12/06 13:13:49;;;;;;;23.17;15.97;;;;;;;;;;5020154;28;20194;-74
2023/12/06 13:16:14;;;;;;;25.17;15.50;;;;;;;;;;5020119;28;20320;-74
2023/12/06 13:18:40;;;;;;;25.80;15.23;;;;;;;;;;5021757;28;20597;-74
2023/12/06 13:21:05;;;;;;;20.00;15.17;;;;;;;;;;5026849;28;20194;-74
2023/12/06 13:23:33;;;;;;;24.57;16.27;;;;;;;;;;5017573;28;20185;-74
2023/12/06 13:25:59;;;;;;;24.33;16.47;;;;;;;;;;5019632;28;20273;-74
2023/12/06 13:28:24;;;;;;;26.20;16.33;;;;;;;;;;5023288;28;20184;-74
2023/12/06 13:30:51;;;;;;;25.97;16.40;;;;;;;;;;5023230;28;20712;-74
2023/12/06 13:33:17;;;;;;;23.53;15.93;;;;;;;;;;5016711;28;20185;-74
2023/12/06 13:35:42;;;;;;;23.20;15.50;;;;;;;;;;4332183;28;10000723;-75
2023/12/06 13:38:07;;;;;;;20.70;14.73;;;;;;;;;;5009742;28;20233;-76
2023/12/06 13:40:33;;;;;;;23.87;15.13;;;;;;;;;;5023883;28;20241;-75
2023/12/06 13:42:58;;;;;;;21.67;14.53;;;;;;;;;;5041433;28;20694;-76
2023/12/06 13:45:24;;;;;;;19.97;13.97;;;;;;;;;;5025411;28;20285;-75
2023/12/06 13:47:49;;;;;;;21.30;13.53;;;;;;;;;;5025953;28;20555;-75
2023/12/06 13:50:14;;;;;;;20.30;13.27;;;;;;;;;;5025927;28;20214;-75
2023/12/06 13:52:40;;;;;;;24.30;13.40;;;;;;;;;;5023361;28;20186;-74
2023/12/06 13:55:08;;;;;;;19.00;13.47;;;;;;;;;;5005517;28;20191;-74
2023/12/06 13:57:34;;;;;;;21.67;12.90;;;;;;;;;;5028015;28;20190;-74
2023/12/06 13:59:59;;;;;;;22.57;13.13;;;;;;;;;;5020342;28;20187;-74
2023/12/06 14:02:25;;;;;;;18.67;12.67;;;;;;;;;;5016910;28;20205;-74
2023/12/06 14:04:50;;;;;;;22.37;13.63;;;;;;;;;;5008353;28;20217;-74
2023/12/06 14:07:16;;;;;;;20.37;13.07;;;;;;;;;;5018970;28;20213;-74
2023/12/06 14:09:41;;;;;;;16.63;12.00;;;;;;;;;;5023107;28;20186;-75
2023/12/06 14:12:07;;;;;;;17.43;10.90;;;;;;;;;;5024214;28;20187;-74